Chrysanthemum — C6XO4 — position and weather

sailwx.info

Track history (hours):
 
Tides and Currents Weather Stations Pressure Air Temp Water Temp Dewpoint Dewpoint Depression Visibility Wind Speed Wind Dir Waves Ship Positions

Chrysanthemum

Last reported at 2016-Jul-25 04:33 UTC. Time now 2016-Jul-25 06:13 UTC.
Position N 01°15' E 104°02'.

Length 244 m; draft 10 m.

Type: Ship. MMSI: 311015300.

Date/timePositionNaut miles runAvg speedWind from/ knotsBaromVisibWave heightAir tempDewpointWater temp
2016-Jul-25 04:33N 01°15' E 104°02'1110.8
2016-Jul-25 03:33N 01°11' E 103°51'3 2.6
2016-Jul-25 02:31N 01°13' E 103°49'0 0.0
2016-Jul-25 01:25N 01°13' E 103°49'0 0.1
2016-Jul-25 00:25N 01°13' E 103°50'0 0.0
2016-Jul-24 23:25N 01°13' E 103°50'0 0.3
2016-Jul-24 22:34N 01°13' E 103°49'4 3.3
2016-Jul-24 21:28N 01°14' E 103°46'0 0.0
2016-Jul-24 10:31N 01°14' E 103°46'0 0.0
2016-Jul-24 07:28N 01°14' E 103°46'0 0.0
2016-Jul-24 05:25N 01°14' E 103°46'0 0.0
2016-Jul-24 04:25N 01°14' E 103°46'0 0.0
2016-Jul-23 19:25N 01°14' E 103°46'0 0.0
2016-Jul-23 09:10N 01°14' E 103°46'0 0.0
2016-Jul-23 01:22N 01°14' E 103°46'0 0.0
2016-Jul-22 09:28N 01°14' E 103°46'1 1.3
2016-Jul-22 08:32N 01°15' E 103°45'5 4.6
2016-Jul-22 07:32N 01°12' E 103°41'1 0.1
2016-Jul-21 17:33N 01°12' E 103°42'0 0.0
2016-Jul-21 16:27N 01°12' E 103°42'0 0.2
2016-Jul-21 15:33N 01°11' E 103°42'0 0.1
2016-Jul-21 12:33N 01°12' E 103°41'7 4.7
2016-Jul-21 11:05N 01°13' E 103°35'7511.1
2016-Jul-21 04:23N 01°48' E 102°29'1311.9
2016-Jul-21 03:19N 01°53' E 102°17'1312.5
2016-Jul-21 02:18N 02°01' E 102°07'  
Track history (hours):
 
Tides and Currents Weather Stations Pressure Air Temp Water Temp Dewpoint Dewpoint Depression Visibility Wind Speed Wind Dir Waves Ship Positions

Chrysanthemum

Last reported at 2016-Jul-25 04:33 UTC. Time now 2016-Jul-25 06:13 UTC.
Position N 01°15' E 104°02'.

Length 244 m; draft 10 m.

Type: Ship. MMSI: 311015300.

Date/timePositionNaut miles runAvg speedWind from/ knotsBaromVisibWave heightAir tempDewpointWater temp
2016-Jul-25 04:33N 01°15' E 104°02'1110.8
2016-Jul-25 03:33N 01°11' E 103°51'3 2.6
2016-Jul-25 02:31N 01°13' E 103°49'0 0.0
2016-Jul-25 01:25N 01°13' E 103°49'0 0.1
2016-Jul-25 00:25N 01°13' E 103°50'0 0.0
2016-Jul-24 23:25N 01°13' E 103°50'0 0.3
2016-Jul-24 22:34N 01°13' E 103°49'4 3.3
2016-Jul-24 21:28N 01°14' E 103°46'0 0.0
2016-Jul-24 10:31N 01°14' E 103°46'0 0.0
2016-Jul-24 07:28N 01°14' E 103°46'0 0.0
2016-Jul-24 05:25N 01°14' E 103°46'0 0.0
2016-Jul-24 04:25N 01°14' E 103°46'0 0.0
2016-Jul-23 19:25N 01°14' E 103°46'0 0.0
2016-Jul-23 09:10N 01°14' E 103°46'0 0.0
2016-Jul-23 01:22N 01°14' E 103°46'0 0.0
2016-Jul-22 09:28N 01°14' E 103°46'1 1.3
2016-Jul-22 08:32N 01°15' E 103°45'5 4.6
2016-Jul-22 07:32N 01°12' E 103°41'1 0.1
2016-Jul-21 17:33N 01°12' E 103°42'0 0.0
2016-Jul-21 16:27N 01°12' E 103°42'0 0.2
2016-Jul-21 15:33N 01°11' E 103°42'0 0.1
2016-Jul-21 12:33N 01°12' E 103°41'7 4.7
2016-Jul-21 11:05N 01°13' E 103°35'7511.1
2016-Jul-21 04:23N 01°48' E 102°29'1311.9
2016-Jul-21 03:19N 01°53' E 102°17'1312.5
2016-Jul-21 02:18N 02°01' E 102°07'  

Dump ship's entire track history